Aérodrome :
LOGIN :

S'inscrire | Disclaimer

   EN    FR    IT 

 










Légende :    VFR   VFR Marginal   IFR   IFR Intensif   IFR Très Intensif
Visi : 
Plafond : 
>= 8 km
>= 3000ft
5 à 8 km
1000 à 3000 ft
1500m à 5 km
500 à 1000 ft
800 à 1500m
200 à 500 ft
< 800m
< 200 ft
Symboles :   Orages  Brouillard  Fortes neiges  Fortes précipitations  Vent > 20 kt
SIGMETs :   Divers  Orages  Givrage  Turbulence  Onde Orograph.  Cendres Volcan.







- Altitude de l'aérodrome : 1649 ft
- Code IATA : HHN


EDFH - Frankfurt-Hahn Rhineland-Palatinate

DERNIER METAR :
  • 181820Z 15004KT 0400 R21/0600N FZFG VV/// M00/M00 Q1025

METARs EXPIRÉS :
  • 181750Z VRB01KT 0400 R21/1200VP2000U FZFG VV/// M00/M00 Q1025
  • 181720Z VRB01KT 0400 R21/0700V1300U FZFG BKN001 M00/M00 Q1024
  • 181650Z VRB02KT 0300 R21/0750V1900D FZFG BKN001 M00/M00 Q1024
  • 181620Z 17002KT 0150 R21/0550N FZFG VV/// M00/M00 Q1023
  • 181550Z 15003KT 0150 R21/0400N FZFG VV/// M00/M00 Q1023

TAF TAF EDFH
Valide du 18 à 18h jusqu'au 19 à 18h UTC


181700Z 1818/1918 VRB03KT 0500 FZFG BKN001
TEMPO 1818/1910 0100
PROB30
TEMPO 1819/1906 0800 -FZDZ BKN002
BECMG 1909/1912 29005KT 1200 -SNRA BR BKN002
Pas de NOTAMs connus pour ce terrain.



MET'MAP, la Météo Aéronautique d'un coup d'oeil ! - Copyright ORBIFLY Décembre 2007 - Disclaimer

ORBIFLY MET'MAP TEAM :

Programmation & Développement : Alexandra Zaïnal
Conception & Développement : Baudouin d'Aumeries
Co-Programmation & Développement : Marc-Olivier Méhu
Soutien technique & logistique : Manuel Goepfert

Contact : metmap@orbifly.com




SOURCES & CREDITS :

   NOAA